Time;durP1;ratioP1;P1;durP2;ratioP2;P2;SDS_P1;SDS_P2;PMS_P1;PMS_P2;Temp;Humidity;BMP_temperature;BMP_pressure;BME280_temperature;BME280_humidity;BME280_pressure;Samples;Min_cycle;Max_cycle;Signal;HPM_P1;HPM_P2
2022/05/25 00:02:24;;;;;;;1.38;0.75;;;;;;;10.18;57.12;99648.19;4997929;28;20053;-45
2022/05/25 00:04:52;;;;;;;1.13;0.50;;;;;;;10.15;56.86;99651.66;5000806;28;20041;-51
2022/05/25 00:07:20;;;;;;;1.95;1.15;;;;;;;10.12;57.31;99651.66;4998971;28;20048;-47
2022/05/25 00:09:48;;;;;;;1.30;0.93;;;;;;;10.10;57.07;99656.00;5006225;28;20069;-52
2022/05/25 00:12:17;;;;;;;1.50;0.85;;;;;;;10.07;57.36;99656.91;5005718;28;20155;-42
2022/05/25 00:14:44;;;;;;;1.48;1.25;;;;;;;10.05;56.78;99652.56;5007824;28;20069;-48
2022/05/25 00:17:10;;;;;;;1.50;1.40;;;;;;;10.01;57.34;99647.44;5003218;28;20476;-45
2022/05/25 00:22:38;;;;;;;1.58;1.23;;;;;;;9.96;57.21;99654.38;5006918;28;20056;-46
2022/05/25 00:25:09;;;;;;;4.03;0.98;;;;;;;9.96;57.32;99656.13;5002845;28;20078;-49
2022/05/25 00:27:38;;;;;;;1.20;0.80;;;;;;;9.93;57.23;99654.38;5008656;28;20784;-55
2022/05/25 00:30:07;;;;;;;1.85;0.52;;;;;;;9.92;57.20;99647.50;4998357;28;20081;-48
2022/05/25 00:32:36;;;;;;;2.47;0.40;;;;;;;9.90;57.66;99628.56;4998185;28;20072;-49
2022/05/25 00:35:06;;;;;;;1.02;0.77;;;;;;;9.88;57.33;99641.50;5001169;28;20041;-50
2022/05/25 00:37:34;;;;;;;2.15;0.95;;;;;;;9.84;57.82;99633.75;4998795;28;20059;-50
2022/05/25 00:40:04;;;;;;;1.23;0.47;;;;;;;9.80;57.74;99632.06;4997721;28;20050;-51
2022/05/25 00:42:35;;;;;;;1.20;0.75;;;;;;;9.77;57.96;99638.94;5002794;28;20046;-49
2022/05/25 00:45:05;;;;;;;2.30;1.52;;;;;;;9.74;57.70;99627.78;5005968;28;20482;-48
2022/05/25 00:47:34;;;;;;;0.80;0.63;;;;;;;9.70;57.79;99626.94;5005422;28;20061;-49
2022/05/25 00:50:02;;;;;;;2.10;1.02;;;;;;;9.67;57.91;99639.91;4997241;28;20049;-46
2022/05/25 00:52:29;;;;;;;2.30;0.63;;;;;;;9.63;58.21;99625.25;4995534;28;20467;-51
2022/05/25 00:55:02;;;;;;;1.42;0.85;;;;;;;9.57;57.77;99627.88;4999184;28;20068;-47
2022/05/25 00:57:34;;;;;;;1.48;0.90;;;;;;;9.55;58.18;99629.63;4995785;28;20053;-48
2022/05/25 01:00:09;;;;;;;1.48;0.85;;;;;;;9.49;58.40;99636.53;4997718;28;20509;-47
2022/05/25 01:02:39;;;;;;;1.15;0.63;;;;;;;9.49;58.01;99628.78;4997884;28;20088;-46
2022/05/25 01:05:07;;;;;;;2.97;0.90;;;;;;;9.47;58.92;99620.19;4999076;28;20457;-49
2022/05/25 01:16:34;;;;;;;1.70;1.23;;;;;;;9.37;59.15;99605.56;5051419;28;20403;-43
2022/05/25 01:19:27;;;;;;;1.63;1.42;;;;;;;9.35;58.94;99599.53;5071498;28;20078;-48
2022/05/25 01:25:07;;;;;;;1.65;1.17;;;;;;;9.72;60.25;99609.69;5034645;27;20403;-45
2022/05/25 01:27:38;;;;;;;1.65;0.93;;;;;;;9.52;60.72;99612.38;5019527;28;20536;-49
2022/05/25 01:33:23;;;;;;;1.90;0.68;;;;;;;9.36;61.04;99617.63;5065839;27;20403;-54
2022/05/25 01:39:05;;;;;;;3.60;1.35;;;;;;;9.40;61.47;99608.16;5147891;27;20394;-49
2022/05/25 01:44:17;;;;;;;2.35;2.13;;;;;;;9.39;61.41;99596.94;5022715;28;20402;-49
2022/05/25 01:47:05;;;;;;;1.83;1.73;;;;;;;9.36;60.73;99596.94;5021460;28;20060;-48
2022/05/25 01:49:40;;;;;;;2.83;2.63;;;;;;;9.37;60.98;99592.66;5021649;28;20053;-49
2022/05/25 01:52:12;;;;;;;3.08;2.15;;;;;;;9.40;61.32;99592.63;5018796;28;20053;-55
2022/05/25 01:54:46;;;;;;;4.20;2.45;;;;;;;9.41;61.47;99589.19;5017768;28;20124;-44
2022/05/25 01:57:15;;;;;;;3.10;2.13;;;;;;;9.42;61.31;99583.13;5006099;28;20133;-53
2022/05/25 01:59:43;;;;;;;4.93;2.28;;;;;;;9.40;61.76;99579.72;5007037;28;20054;-48
2022/05/25 02:05:04;;;;;;;3.85;2.30;;;;;;;9.44;62.41;99583.13;5017680;28;20060;-53
2022/05/25 02:14:00;;;;;;;2.40;1.30;;;;;;;9.49;63.96;99592.56;5113919;27;20550;-47
2022/05/25 02:32:58;;;;;;;4.63;1.42;;;;;;;9.76;63.87;99576.88;5057177;28;20395;-47
2022/05/25 02:35:26;;;;;;;3.00;1.38;;;;;;;9.76;63.96;99570.00;5026552;28;20484;-44
2022/05/25 02:37:57;;;;;;;3.25;1.60;;;;;;;9.75;63.72;99568.28;5027215;28;20041;-49
2022/05/25 02:40:27;;;;;;;4.80;1.48;;;;;;;9.74;63.83;99564.00;5024980;28;20053;-48
2022/05/25 02:42:54;;;;;;;2.92;1.02;;;;;;;9.73;64.04;99567.44;5024543;28;20413;-50
2022/05/25 02:45:21;;;;;;;3.05;0.73;;;;;;;9.73;64.12;99564.84;5021390;28;20069;-49
2022/05/25 02:47:48;;;;;;;2.50;0.98;;;;;;;9.72;63.55;99563.13;5019645;28;20770;-50
2022/05/25 02:50:15;;;;;;;3.50;0.90;;;;;;;9.73;64.27;99570.00;5017117;28;20048;-49
2022/05/25 02:52:42;;;;;;;2.25;1.60;;;;;;;9.76;64.12;99570.00;5022532;28;20045;-49
2022/05/25 02:55:10;;;;;;;1.92;1.00;;;;;;;9.76;63.64;99570.00;5022859;28;20041;-50
2022/05/25 02:57:37;;;;;;;1.92;0.80;;;;;;;9.77;64.22;99576.88;5029241;28;20137;-47
2022/05/25 03:00:05;;;;;;;2.65;0.68;;;;;;;9.79;63.96;99568.28;5016974;28;20584;-51
2022/05/25 03:02:33;;;;;;;2.08;1.33;;;;;;;9.79;63.86;99568.28;5017490;28;20156;-52
2022/05/25 03:05:00;;;;;;;3.22;0.88;;;;;;;9.81;64.11;99561.34;5018015;28;20042;-42
2022/05/25 03:07:27;;;;;;;2.60;1.38;;;;;;;9.82;63.72;99568.22;5017495;28;20480;-46
2022/05/25 03:09:54;;;;;;;1.40;0.82;;;;;;;9.82;64.15;99557.88;5012781;28;20044;-48
2022/05/25 03:12:39;;;;;;;1.90;0.75;;;;;;;9.84;64.47;99566.50;5001762;28;20295;-43
2022/05/25 03:15:06;;;;;;;1.63;0.90;;;;;;;9.87;64.09;99571.66;5001609;28;20132;-44
2022/05/25 03:17:33;;;;;;;3.47;1.02;;;;;;;9.85;64.19;99565.63;5001261;28;20379;-48
2022/05/25 03:20:00;;;;;;;3.90;1.25;;;;;;;9.86;63.79;99562.19;5004920;28;20049;-53
2022/05/25 03:22:28;;;;;;;1.98;0.95;;;;;;;9.84;64.17;99572.53;5004153;28;20054;-55
2022/05/25 03:24:55;;;;;;;2.80;1.00;;;;;;;9.84;64.13;99566.50;5002210;28;20138;-52
2022/05/25 03:27:22;;;;;;;1.73;0.80;;;;;;;9.83;64.08;99564.78;5006544;28;20463;-47
2022/05/25 03:29:50;;;;;;;3.05;1.17;;;;;;;9.84;64.50;99571.69;5002830;28;20053;-50
2022/05/25 03:32:18;;;;;;;2.78;1.30;;;;;;;9.83;63.93;99569.97;5002933;28;20046;-46
2022/05/25 03:34:48;;;;;;;3.03;0.90;;;;;;;9.85;64.36;99573.38;5006677;28;20407;-48
2022/05/25 03:37:15;;;;;;;1.73;1.25;;;;;;;9.85;64.20;99574.25;4999385;28;20116;-52
2022/05/25 03:39:42;;;;;;;1.63;0.63;;;;;;;9.89;63.87;99575.06;5004225;28;20057;-48
2022/05/25 03:42:14;;;;;;;3.72;0.75;;;;;;;9.88;64.41;99568.19;4999572;28;20049;-51
2022/05/25 03:44:41;;;;;;;2.60;1.08;;;;;;;9.87;63.83;99566.47;4988734;28;20042;-45
2022/05/25 03:47:08;;;;;;;3.78;1.20;;;;;;;9.86;64.23;99562.19;4989194;28;20068;-52
2022/05/25 03:49:35;;;;;;;2.00;1.20;;;;;;;9.80;64.18;99567.41;4991978;28;20142;-50
2022/05/25 03:52:04;;;;;;;8.48;2.15;;;;;;;9.78;64.22;99562.22;4991011;28;20058;-48
2022/05/25 03:54:32;;;;;;;2.40;1.00;;;;;;;9.75;64.41;99568.28;4989312;28;20073;-50
2022/05/25 03:56:59;;;;;;;2.88;1.05;;;;;;;9.74;63.69;99569.16;4990675;28;20948;-44
2022/05/25 03:59:26;;;;;;;1.90;0.90;;;;;;;9.71;64.06;99558.84;4990599;28;20124;-49
2022/05/25 04:01:53;;;;;;;2.15;1.13;;;;;;;9.67;64.83;99548.50;4991422;28;20148;-51
2022/05/25 04:04:20;;;;;;;3.17;1.08;;;;;;;9.67;64.92;99554.56;4990404;28;21800;-52
2022/05/25 04:06:48;;;;;;;3.45;1.35;;;;;;;9.68;64.49;99556.25;4988162;28;20045;-50
2022/05/25 04:09:15;;;;;;;5.00;0.90;;;;;;;9.69;64.05;99560.56;4987693;28;20398;-51
2022/05/25 04:11:43;;;;;;;4.32;1.15;;;;;;;9.70;64.37;99564.88;4983538;28;20136;-52
2022/05/25 04:14:10;;;;;;;5.22;1.38;;;;;;;9.72;64.78;99557.97;5019136;28;20081;-51
2022/05/25 04:16:38;;;;;;;5.28;2.03;;;;;;;9.77;64.84;99566.53;4989863;28;20133;-46
2022/05/25 04:19:05;;;;;;;4.00;1.50;;;;;;;9.82;64.66;99573.41;4988570;28;20144;-46
2022/05/25 04:21:32;;;;;;;2.60;1.17;;;;;;;9.88;65.13;99579.41;4988014;28;20041;-48
2022/05/25 04:23:59;;;;;;;3.67;1.40;;;;;;;9.92;64.51;99575.06;4988047;28;20049;-47
2022/05/25 04:26:25;;;;;;;3.25;1.42;;;;;;;9.95;64.39;99564.69;4989200;28;20049;-50
2022/05/25 04:28:52;;;;;;;2.88;1.25;;;;;;;9.99;64.64;99575.84;4990129;28;20386;-48
2022/05/25 04:31:19;;;;;;;4.93;1.48;;;;;;;10.02;64.95;99571.53;4989511;28;20070;-43
2022/05/25 04:33:46;;;;;;;4.53;1.23;;;;;;;10.05;65.04;99574.94;4987534;28;20049;-44
2022/05/25 04:36:20;;;;;;;3.00;1.30;;;;;;;10.08;64.97;99574.94;4991230;28;20046;-52
2022/05/25 04:38:48;;;;;;;2.83;1.30;;;;;;;10.11;65.11;99574.91;4988241;28;20465;-51
2022/05/25 04:41:15;;;;;;;6.72;1.83;;;;;;;10.13;65.16;99567.97;4987778;28;20046;-48
2022/05/25 04:43:43;;;;;;;4.25;1.85;;;;;;;10.16;65.14;99573.13;4985445;28;20137;-47
2022/05/25 04:46:12;;;;;;;4.47;1.27;;;;;;;10.18;65.65;99574.00;4984614;28;20058;-51
2022/05/25 04:48:39;;;;;;;3.95;1.25;;;;;;;10.20;65.16;99561.88;4990515;28;20050;-51
2022/05/25 04:51:07;;;;;;;6.00;1.30;;;;;;;10.22;65.27;99557.56;4994160;28;20140;-51
2022/05/25 04:53:34;;;;;;;4.38;1.58;;;;;;;10.25;65.47;99556.66;4991027;28;20112;-44
2022/05/25 04:58:48;;;;;;;2.50;1.42;;;;;;;10.26;65.71;99548.91;4988786;28;20089;-48
2022/05/25 05:01:19;;;;;;;4.70;1.60;;;;;;;10.29;65.34;99548.88;4988067;28;20050;-51
2022/05/25 05:03:47;;;;;;;6.65;2.13;;;;;;;10.31;65.55;99550.59;4991237;28;20041;-45
2022/05/25 05:06:14;;;;;;;2.45;0.77;;;;;;;10.33;65.91;99548.84;4987882;28;20057;-50
2022/05/25 05:08:41;;;;;;;5.10;0.63;;;;;;;10.37;66.02;99560.88;4992110;28;20053;-47
2022/05/25 05:11:13;;;;;;;4.15;1.33;;;;;;;10.41;66.45;99559.97;4982077;28;20141;-48
2022/05/25 05:13:41;;;;;;;4.18;1.10;;;;;;;10.44;65.87;99547.00;4982946;28;20042;-48
2022/05/25 05:16:10;;;;;;;6.05;1.10;;;;;;;10.48;66.05;99543.56;4983288;28;20387;-47
2022/05/25 05:18:37;;;;;;;8.15;1.50;;;;;;;10.52;65.86;99528.81;4987170;28;20560;-51
2022/05/25 05:21:04;;;;;;;5.53;2.13;;;;;;;10.57;66.08;99536.56;4990872;28;20062;-54
2022/05/25 05:23:31;;;;;;;8.35;1.83;;;;;;;10.60;66.06;99533.94;4990889;28;20046;-47
2022/05/25 05:25:58;;;;;;;7.40;1.65;;;;;;;10.62;65.90;99555.47;4989868;28;20046;-50
2022/05/25 05:28:29;;;;;;;3.53;0.98;;;;;;;10.61;66.67;99561.53;4988429;28;20112;-46
2022/05/25 05:30:58;;;;;;;4.28;1.17;;;;;;;10.61;66.64;99559.78;4988188;28;20723;-50
2022/05/25 05:33:27;;;;;;;4.72;0.77;;;;;;;10.63;66.76;99552.00;4987537;28;20049;-47
2022/05/25 05:44:07;;;;;;;6.68;1.95;;;;;;;11.07;67.27;99556.69;5028121;28;20418;-48
2022/05/25 05:46:36;;;;;;;6.90;2.58;;;;;;;10.86;67.66;99554.34;5024316;28;20038;-46
2022/05/25 05:49:05;;;;;;;6.10;2.20;;;;;;;10.85;67.98;99562.13;5023565;28;20080;-49
2022/05/25 05:51:32;;;;;;;3.15;0.90;;;;;;;10.89;67.72;99553.44;5024689;28;20042;-47
2022/05/25 05:53:59;;;;;;;5.18;2.05;;;;;;;10.93;67.12;99552.53;5023888;28;20080;-47
2022/05/25 05:56:27;;;;;;;3.75;2.30;;;;;;;10.99;67.49;99559.38;5023820;28;20049;-45
2022/05/25 05:58:53;;;;;;;2.83;1.20;;;;;;;11.02;67.50;99554.16;5023820;28;20107;-47
2022/05/25 06:01:20;;;;;;;4.28;2.30;;;;;;;11.05;66.77;99560.16;5022846;28;20046;-48
2022/05/25 06:03:47;;;;;;;3.30;0.77;;;;;;;11.09;66.56;99549.75;5024215;28;20050;-46
2022/05/25 06:06:14;;;;;;;3.38;1.92;;;;;;;11.12;66.76;99555.75;5023388;28;20701;-46
2022/05/25 06:08:46;;;;;;;3.85;1.90;;;;;;;11.15;66.55;99544.50;5023440;28;20486;-45
2022/05/25 06:11:13;;;;;;;7.88;1.50;;;;;;;11.21;66.24;99552.16;5001236;28;20391;-48
2022/05/25 06:13:41;;;;;;;2.92;1.80;;;;;;;11.27;67.18;99543.44;5020292;28;20050;-47
2022/05/25 06:21:40;;;;;;;8.27;1.85;;;;;;;11.40;66.67;99550.19;5003279;28;20050;-44
2022/05/25 06:24:07;;;;;;;4.50;2.28;;;;;;;11.43;66.67;99544.09;5002856;28;20057;-46
2022/05/25 06:26:34;;;;;;;7.82;2.30;;;;;;;11.47;67.38;99556.16;5018675;28;20077;-51
2022/05/25 06:29:02;;;;;;;2.20;0.73;;;;;;;11.55;66.55;99559.47;5003061;28;20053;-52
2022/05/25 06:31:30;;;;;;;7.22;1.85;;;;;;;11.63;67.26;99555.91;5003514;28;20046;-50
2022/05/25 06:33:57;;;;;;;5.20;1.60;;;;;;;11.67;67.37;99549.81;5001612;28;20054;-49
2022/05/25 06:36:28;;;;;;;4.38;1.30;;;;;;;11.73;66.31;99547.13;5005911;28;20041;-49
2022/05/25 06:38:56;;;;;;;3.67;2.33;;;;;;;11.79;66.83;99551.38;4997883;28;20076;-49
2022/05/25 06:41:23;;;;;;;5.70;2.33;;;;;;;11.84;67.12;99557.31;4997136;28;20061;-47
2022/05/25 06:43:49;;;;;;;3.05;1.50;;;;;;;11.87;66.32;99543.44;4997696;28;20057;-45
2022/05/25 06:46:19;;;;;;;8.77;2.08;;;;;;;11.89;66.44;99545.13;4998280;28;20060;-49
2022/05/25 06:48:52;;;;;;;9.05;2.08;;;;;;;11.96;67.08;99540.72;5001761;28;20100;-50
2022/05/25 06:51:23;;;;;;;3.10;1.70;;;;;;;12.03;66.74;99544.91;5015326;28;20046;-51
2022/05/25 06:53:50;;;;;;;3.85;1.65;;;;;;;12.17;66.35;99538.66;4992421;28;20042;-48
2022/05/25 06:56:18;;;;;;;5.70;2.50;;;;;;;12.27;66.68;99548.00;4986376;28;20053;-49
2022/05/25 06:58:47;;;;;;;6.75;2.20;;;;;;;12.40;66.24;99543.41;4988803;28;20058;-46
2022/05/25 07:01:14;;;;;;;3.85;2.05;;;;;;;12.51;65.34;99539.78;4984062;28;20043;-47
2022/05/25 07:03:41;;;;;;;3.15;1.92;;;;;;;12.61;64.89;99536.13;4986624;28;20050;-49
2022/05/25 07:06:09;;;;;;;6.13;1.90;;;;;;;12.67;65.73;99545.53;4986907;28;20054;-47
2022/05/25 07:08:36;;;;;;;5.25;2.67;;;;;;;12.74;64.62;99552.34;4987812;28;20164;-49
2022/05/25 07:11:04;;;;;;;2.10;1.75;;;;;;;12.81;65.69;99543.53;4985847;28;20046;-48
2022/05/25 07:13:30;;;;;;;5.05;2.28;;;;;;;12.95;65.27;99544.97;4988500;28;20035;-44
2022/05/25 07:16:02;;;;;;;4.15;2.38;;;;;;;13.04;64.40;99539.56;4989206;28;20066;-46
2022/05/25 07:18:29;;;;;;;5.28;2.70;;;;;;;13.08;65.02;99541.22;4991151;28;20081;-47
2022/05/25 07:21:01;;;;;;;8.27;2.03;;;;;;;13.13;64.61;99545.50;5004310;28;20658;-46
2022/05/25 07:23:28;;;;;;;2.38;1.70;;;;;;;13.19;63.63;99547.94;4990149;28;20058;-50
2022/05/25 07:25:55;;;;;;;4.18;2.42;;;;;;;13.27;64.59;99551.22;4989169;28;20077;-48
2022/05/25 07:28:21;;;;;;;4.63;1.52;;;;;;;13.33;64.54;99548.50;4989033;28;20481;-51
2022/05/25 07:30:51;;;;;;;5.72;2.00;;;;;;;13.37;63.67;99537.13;4989252;28;20050;-54
2022/05/25 07:33:18;;;;;;;5.50;1.80;;;;;;;13.40;62.86;99545.78;4989466;28;20603;-46
2022/05/25 07:35:46;;;;;;;3.83;2.00;;;;;;;13.41;63.78;99542.28;4989088;28;20054;-49
2022/05/25 07:38:12;;;;;;;3.70;0.82;;;;;;;13.42;62.84;99550.06;4988129;28;20427;-50
2022/05/25 07:40:42;;;;;;;3.95;2.92;;;;;;;13.37;62.81;99552.75;4987991;28;20560;-51
2022/05/25 07:43:14;;;;;;;4.70;2.20;;;;;;;13.37;63.17;99554.47;4986653;28;20043;-49
2022/05/25 07:45:45;;;;;;;3.42;1.77;;;;;;;13.32;63.11;99553.75;4989681;28;20170;-46
2022/05/25 07:48:12;;;;;;;;;;;;;;;13.23;64.28;99554.78;4990403;28;20073;-48
2022/05/25 07:50:40;;;;;;;4.30;1.38;;;;;;;13.30;63.67;99556.38;4987812;28;20507;-46
2022/05/25 07:53:55;;;;;;;2.55;0.80;;;;;;;13.29;64.00;99567.66;4984624;28;20391;-49
2022/05/25 07:55:54;;;;;;;6.00;1.77;;;;;;;13.28;62.83;99557.28;4987052;28;20056;-49
2022/05/25 07:58:21;;;;;;;1.92;0.65;;;;;;;13.31;64.28;99571.06;4986353;28;20461;-47
2022/05/25 08:00:51;;;;;;;6.53;2.78;;;;;;;13.32;63.60;99562.41;4986233;28;20050;-50
2022/05/25 08:06:06;;;;;;;5.65;2.15;;;;;;;13.40;63.37;99566.59;4985455;28;20050;-47
2022/05/25 08:08:32;;;;;;;5.65;2.67;;;;;;;13.45;62.96;99559.53;4988871;28;20047;-53
2022/05/25 08:11:03;;;;;;;5.90;2.05;;;;;;;13.51;63.88;99559.41;4987262;28;20761;-40
2022/05/25 08:13:30;;;;;;;8.00;2.78;;;;;;;13.59;63.80;99549.69;5005499;28;20054;-41
2022/05/25 08:15:57;;;;;;;5.43;2.45;;;;;;;13.64;63.06;99548.75;4985436;28;20053;-45
2022/05/25 08:18:23;;;;;;;4.22;0.68;;;;;;;13.73;63.54;99548.50;4987796;28;20547;-45
2022/05/25 08:20:50;;;;;;;14.68;4.03;;;;;;;13.81;63.18;99541.38;4986440;28;20046;-43
2022/05/25 08:23:17;;;;;;;3.25;2.15;;;;;;;13.92;63.35;99542.84;4988594;28;20039;-42
2022/05/25 08:25:44;;;;;;;9.98;3.67;;;;;;;13.99;63.16;99540.03;5003968;28;20097;-44
2022/05/25 08:28:11;;;;;;;5.63;2.67;;;;;;;14.02;63.32;99539.16;4990088;28;20502;-43
2022/05/25 08:30:41;;;;;;;8.48;2.80;;;;;;;14.09;63.16;99540.66;4988184;28;20501;-42
2022/05/25 08:33:09;;;;;;;6.95;2.03;;;;;;;14.24;63.40;99543.78;5000976;28;20486;-48
2022/05/25 08:35:37;;;;;;;7.18;2.53;;;;;;;14.39;63.33;99532.97;4987243;28;20046;-46
2022/05/25 08:38:03;;;;;;;5.07;2.58;;;;;;;14.52;62.68;99522.19;4988168;28;20050;-45
2022/05/25 08:40:32;;;;;;;3.10;1.00;;;;;;;14.69;62.51;99528.72;5001307;28;20454;-48
2022/05/25 08:43:13;;;;;;;8.57;0.80;;;;;;;14.75;61.96;99518.09;4986850;28;20435;-43
2022/05/25 08:45:44;;;;;;;5.25;2.40;;;;;;;14.83;61.96;99516.16;4986927;28;20540;-45
2022/05/25 08:48:14;;;;;;;7.95;2.55;;;;;;;14.93;61.51;99519.34;4987183;28;20050;-44
2022/05/25 08:50:41;;;;;;;2.60;2.30;;;;;;;15.02;60.73;99513.00;4987017;28;20050;-47
2022/05/25 08:53:11;;;;;;;7.38;2.05;;;;;;;15.01;60.81;99508.69;5002771;28;20045;-45
2022/05/25 08:56:01;;;;;;;7.05;1.88;;;;;;;15.00;60.87;99523.47;4988154;28;20142;-44
2022/05/25 08:58:38;;;;;;;3.65;1.45;;;;;;;14.98;61.25;99508.78;4986979;28;20058;-48
2022/05/25 09:01:06;;;;;;;8.35;2.53;;;;;;;14.94;60.71;99517.59;4984730;28;20042;-42
2022/05/25 09:04:13;;;;;;;2.10;1.83;;;;;;;14.77;61.42;99505.91;4985374;28;20077;-45
2022/05/25 09:12:29;;;;;;;1.88;0.90;;;;;;;14.62;61.41;99523.66;5055884;28;20400;-45
2022/05/25 09:17:48;;;;;;;6.57;1.25;;;;;;;14.67;62.18;99525.28;5027219;28;20418;-47
2022/05/25 09:20:21;;;;;;;5.90;1.25;;;;;;;14.71;62.07;99519.06;5021062;28;20054;-47
2022/05/25 09:22:52;;;;;;;2.92;0.73;;;;;;;14.72;61.75;99512.94;5020936;28;20076;-44
2022/05/25 09:25:21;;;;;;;3.60;1.02;;;;;;;14.74;61.89;99508.56;5022452;28;20103;-44
2022/05/25 09:35:50;;;;;;;2.50;0.40;;;;;;;14.82;61.86;99504.00;5071022;28;20421;-43
2022/05/25 09:41:13;;;;;;;2.33;1.67;;;;;;;14.89;61.67;99505.53;5027385;27;20414;-44
2022/05/25 09:43:41;;;;;;;;;;;;;;;14.78;61.67;99502.41;5025004;28;20049;-43
2022/05/25 09:46:15;;;;;;;1.58;1.45;;;;;;;14.94;62.06;99496.72;5025197;28;19957;-43
2022/05/25 09:49:02;;;;;;;5.07;1.83;;;;;;;14.97;60.70;99501.88;5024888;28;20099;-43
2022/05/25 09:59:29;;;;;;;1.00;0.40;;;;;;;15.70;61.29;99506.59;5036140;27;20422;-48
2022/05/25 10:01:56;;;;;;;2.70;0.50;;;;;;;15.95;60.62;99501.44;5002499;28;20061;-47
2022/05/25 10:04:52;;;;;;;1.95;0.77;;;;;;;16.21;60.24;99511.91;5004029;28;20506;-47
2022/05/25 10:07:30;;;;;;;3.60;0.90;;;;;;;16.40;59.63;99507.72;4987061;28;20057;-44
2022/05/25 10:10:02;;;;;;;1.13;0.80;;;;;;;16.51;59.38;99520.41;4998161;28;20068;-48
2022/05/25 10:12:32;;;;;;;3.53;0.68;;;;;;;16.53;59.20;99513.38;4976051;28;20049;-44
2022/05/25 10:22:52;;;;;;;2.58;1.00;;;;;;;17.19;59.43;99521.44;5031490;28;20399;-44
2022/05/25 10:39:31;;;;;;;1.48;1.08;;;;;;;18.17;57.33;99524.53;5001960;28;20053;-46
2022/05/25 10:47:33;;;;;;;3.72;0.73;;;;;;;18.67;54.64;99527.63;5062552;28;20438;-46
2022/05/25 10:50:04;;;;;;;1.98;0.68;;;;;;;18.67;54.99;99538.97;5029830;28;20055;-43
2022/05/25 10:52:33;;;;;;;;;;;;;;;18.62;54.94;99530.47;5029315;28;20045;-45
2022/05/25 10:54:59;;;;;;;1.52;0.85;;;;;;;18.66;54.80;99532.03;5026370;28;20064;-45
2022/05/25 11:11:36;;;;;;;1.70;0.43;;;;;;;19.27;54.03;99527.53;5057579;28;20410;-46
2022/05/25 11:16:51;;;;;;;1.27;0.75;;;;;;;19.38;54.45;99520.88;5035764;28;20405;-44
2022/05/25 11:25:00;;;;;;;1.05;0.60;;;;;;;19.34;54.28;99537.72;5053002;28;20398;-41
2022/05/25 11:28:06;;;;;;;1.30;0.57;;;;;;;19.07;54.55;99538.09;5019141;28;20053;-42
2022/05/25 15:36:33;;;;;;;2.28;1.80;;;;;;;19.97;46.81;99699.38;5053061;27;20399;-46
2022/05/25 15:38:59;;;;;;;3.45;1.40;;;;;;;19.63;47.28;99700.97;5019542;28;20053;-46
2022/05/25 15:41:26;;;;;;;3.35;1.95;;;;;;;19.51;47.03;99695.34;5017309;28;20053;-47
2022/05/25 15:43:53;;;;;;;3.13;0.45;;;;;;;19.47;47.61;99701.66;5018009;28;20446;-45
2022/05/25 15:46:42;;;;;;;2.30;1.80;;;;;;;19.44;47.88;99701.81;5008738;28;20056;-47
2022/05/25 15:49:13;;;;;;;2.03;1.75;;;;;;;19.46;47.77;99705.22;5006389;28;20096;-45
2022/05/25 15:51:50;;;;;;;2.22;1.55;;;;;;;19.47;47.68;99706.06;5013390;28;20123;-47
2022/05/25 15:54:20;;;;;;;3.25;1.35;;;;;;;19.50;47.23;99711.19;5013276;28;20046;-47
2022/05/25 15:56:51;;;;;;;1.73;1.50;;;;;;;19.50;47.07;99716.44;5019600;28;20050;-46
2022/05/25 15:59:17;;;;;;;1.52;1.30;;;;;;;19.46;47.16;99714.88;5022464;28;20045;-43
2022/05/25 16:01:46;;;;;;;2.13;1.90;;;;;;;19.42;47.06;99711.50;5021062;28;20057;-50
2022/05/25 16:04:25;;;;;;;1.42;1.33;;;;;;;19.40;47.37;99723.88;5009296;28;20088;-47
2022/05/25 16:06:53;;;;;;;2.83;1.83;;;;;;;19.39;47.16;99720.38;5017187;28;20381;-46
2022/05/25 16:09:21;;;;;;;1.92;1.73;;;;;;;19.37;47.12;99727.50;5019226;28;20046;-45
2022/05/25 16:17:00;;;;;;;1.50;0.30;;;;;;;19.35;46.93;99723.25;5031253;28;20402;-47
2022/05/25 16:19:31;;;;;;;1.10;0.52;;;;;;;19.32;46.88;99726.81;5016937;28;20045;-49
2022/05/25 16:21:58;;;;;;;1.48;0.32;;;;;;;19.29;46.97;99728.75;5024116;28;20056;-49
2022/05/25 16:24:24;;;;;;;1.50;0.30;;;;;;;19.30;46.68;99730.44;5024243;28;20049;-48
2022/05/25 16:26:51;;;;;;;1.30;0.50;;;;;;;19.26;46.30;99725.31;5024608;28;20409;-47
2022/05/25 16:29:19;;;;;;;1.67;0.80;;;;;;;19.24;46.34;99732.44;5027150;28;20045;-50
2022/05/25 16:31:50;;;;;;;2.75;0.60;;;;;;;19.22;46.62;99744.75;5025628;28;20116;-49
2022/05/25 16:34:17;;;;;;;0.85;0.35;;;;;;;19.22;47.40;99747.38;5024921;28;20053;-45
2022/05/25 16:36:43;;;;;;;6.47;1.85;;;;;;;19.32;47.42;99749.63;5021710;28;20049;-47
2022/05/25 16:39:12;;;;;;;14.45;3.33;;;;;;;19.39;47.78;99745.81;5023648;28;20062;-51
2022/05/25 16:41:41;;;;;;;7.68;1.85;;;;;;;19.41;47.48;99751.81;5020922;28;20057;-49
2022/05/25 16:44:08;;;;;;;1.83;0.75;;;;;;;19.40;47.54;99760.63;5024485;28;20052;-49
2022/05/25 16:46:35;;;;;;;6.93;1.60;;;;;;;19.37;47.34;99758.13;5024024;28;20053;-47
2022/05/25 16:49:02;;;;;;;4.70;1.80;;;;;;;19.33;47.49;99761.81;5026265;28;20061;-46
2022/05/25 16:51:29;;;;;;;2.85;0.93;;;;;;;19.27;47.81;99758.56;5025257;28;20049;-46
2022/05/25 16:53:55;;;;;;;3.63;1.00;;;;;;;19.19;47.58;99755.41;5026629;28;20108;-45
2022/05/25 16:56:23;;;;;;;5.88;1.70;;;;;;;19.18;47.63;99769.44;5026166;28;20050;-44
2022/05/25 16:58:51;;;;;;;5.38;1.17;;;;;;;19.16;48.23;99766.03;5028759;28;20057;-45
2022/05/25 17:01:20;;;;;;;3.70;1.10;;;;;;;19.13;47.98;99776.66;5027061;28;20664;-44
2022/05/25 17:03:47;;;;;;;4.05;0.90;;;;;;;19.10;47.70;99782.91;5021689;28;20049;-45
2022/05/25 17:06:15;;;;;;;3.40;1.15;;;;;;;19.06;48.26;99778.72;5022449;28;20045;-45
2022/05/25 17:08:42;;;;;;;1.13;0.70;;;;;;;19.01;48.03;99794.63;5023220;28;20095;-47
2022/05/25 17:11:10;;;;;;;2.22;1.00;;;;;;;19.01;48.17;99794.63;5025177;28;20053;-45
2022/05/25 17:13:39;;;;;;;3.50;0.60;;;;;;;19.02;47.74;99801.56;5022174;28;20492;-42
2022/05/25 17:16:07;;;;;;;2.65;0.82;;;;;;;19.01;47.65;99799.00;5024772;28;20068;-46
2022/05/25 17:21:26;;;;;;;4.72;1.33;;;;;;;18.90;47.93;99817.81;5009835;28;20456;-50
2022/05/25 17:23:54;;;;;;;5.38;1.25;;;;;;;18.91;48.14;99818.69;5027115;28;20045;-44
2022/05/25 17:26:21;;;;;;;5.43;1.30;;;;;;;18.90;48.49;99823.06;5022786;28;20046;-45
2022/05/25 17:28:47;;;;;;;2.97;0.80;;;;;;;18.88;48.19;99824.91;5011024;28;20050;-44
2022/05/25 17:31:14;;;;;;;2.05;0.73;;;;;;;18.88;48.70;99835.41;5010142;28;20054;-41
2022/05/25 17:33:41;;;;;;;2.67;1.00;;;;;;;18.88;48.80;99831.00;5010999;28;20053;-42
2022/05/25 17:41:48;;;;;;;3.08;1.55;;;;;;;18.97;48.67;99832.41;5005489;28;20057;-43
2022/05/25 17:44:18;;;;;;;3.55;1.45;;;;;;;19.06;48.31;99835.56;5014694;28;20041;-45
2022/05/25 17:46:46;;;;;;;8.57;2.72;;;;;;;19.13;48.16;99837.03;5013204;28;20042;-44
2022/05/25 17:49:14;;;;;;;4.57;1.30;;;;;;;19.11;47.83;99842.34;5016342;28;20115;-47
2022/05/25 17:51:43;;;;;;;4.75;1.50;;;;;;;19.02;47.56;99843.56;5014801;28;20046;-46
2022/05/25 17:54:11;;;;;;;5.70;1.00;;;;;;;18.91;48.47;99840.50;5011095;28;20477;-46
2022/05/25 17:56:39;;;;;;;6.95;1.42;;;;;;;18.79;48.07;99854.13;5004394;28;20133;-46
2022/05/25 17:59:07;;;;;;;4.43;1.33;;;;;;;18.74;48.15;99849.94;5002651;28;20046;-43
2022/05/25 18:01:33;;;;;;;1.65;0.63;;;;;;;18.73;48.14;99863.97;5007179;28;20046;-50
2022/05/25 18:04:01;;;;;;;4.32;1.58;;;;;;;18.72;48.33;99872.78;5008953;28;20089;-44
2022/05/25 18:06:30;;;;;;;2.97;0.60;;;;;;;18.54;48.32;99863.00;5009531;28;20560;-44
2022/05/25 18:08:58;;;;;;;3.90;1.20;;;;;;;18.50;48.41;99868.34;5010082;28;20054;-45
2022/05/25 18:11:25;;;;;;;2.65;1.00;;;;;;;18.41;49.19;99873.09;5006897;28;20050;-46
2022/05/25 18:13:54;;;;;;;2.03;0.70;;;;;;;18.32;49.09;99869.06;5007482;28;20140;-45
2022/05/25 18:16:21;;;;;;;1.33;0.68;;;;;;;18.17;49.04;99871.31;5009699;28;20493;-43
2022/05/25 18:18:48;;;;;;;2.70;0.40;;;;;;;18.05;48.99;99877.00;5013551;28;20060;-42
2022/05/25 18:21:14;;;;;;;1.13;0.50;;;;;;;17.96;48.74;99886.03;5009117;28;20046;-47
2022/05/25 18:23:41;;;;;;;1.77;0.43;;;;;;;17.86;49.12;99888.13;5008680;28;20053;-45
2022/05/25 18:26:08;;;;;;;2.08;1.02;;;;;;;17.78;49.33;99884.94;5009942;28;20050;-47
2022/05/25 18:28:34;;;;;;;1.58;0.43;;;;;;;17.72;49.82;99889.50;5004655;28;20180;-47
2022/05/25 18:31:01;;;;;;;2.60;0.43;;;;;;;17.67;49.71;99894.03;5002543;28;20108;-43
2022/05/25 18:33:27;;;;;;;2.15;0.63;;;;;;;17.63;50.03;99892.41;5003186;28;21480;-43